Time;durP1;ratioP1;P1;durP2;ratioP2;P2;SDS_P1;SDS_P2;PMS_P1;PMS_P2;Temp;Humidity;BMP_temperature;BMP_pressure;BME280_temperature;BME280_humidity;BME280_pressure;Samples;Min_cycle;Max_cycle;Signal;HPM_P1;HPM_P2
2023/10/07 00:02:50;;;;;;;21.93;8.53;;;;;8.60;97057.00;;;;8363672;28;20776;-63
2023/10/07 00:06:56;;;;;;;25.70;8.30;;;;;8.70;97065.00;;;;8342509;28;20755;-63
2023/10/07 00:11:00;;;;;;;21.90;7.97;;;;;8.70;97061.00;;;;8349578;28;20208;-63
2023/10/07 00:15:05;;;;;;;20.00;7.60;;;;;8.70;97059.00;;;;8356507;28;20266;-63
2023/10/07 00:19:09;;;;;;;20.60;7.77;;;;;8.60;97054.00;;;;8352371;28;20276;-63
2023/10/07 00:23:16;;;;;;;19.33;8.13;;;;;8.60;97046.00;;;;8352608;28;20200;-63
2023/10/07 00:27:29;;;;;;;18.20;7.43;;;;;8.50;97051.00;;;;8346846;28;20232;-63
2023/10/07 00:31:34;;;;;;;21.00;7.97;;;;;8.40;97053.00;;;;8350763;28;20279;-63
2023/10/07 00:35:39;;;;;;;21.60;7.43;;;;;8.40;97052.00;;;;8342563;28;20593;-63
2023/10/07 00:39:43;;;;;;;23.23;8.40;;;;;8.40;97043.00;;;;8350083;28;20197;-63
2023/10/07 00:43:46;;;;;;;19.07;8.30;;;;;8.30;97052.00;;;;8346178;28;20197;-63
2023/10/07 00:47:51;;;;;;;23.97;7.73;;;;;8.30;97055.00;;;;8348062;28;20192;-63
2023/10/07 00:52:03;;;;;;;15.53;7.60;;;;;8.30;97041.00;;;;8344744;28;20209;-63
2023/10/07 00:56:07;;;;;;;20.73;8.00;;;;;8.20;97042.00;;;;8351395;28;20204;-63
2023/10/07 01:00:34;;;;;;;21.40;8.33;;;;;8.20;97049.00;;;;8347983;28;20197;-63
2023/10/07 01:04:40;;;;;;;22.93;6.90;;;;;8.10;97042.00;;;;8343708;28;20224;-64
2023/10/07 01:08:50;;;;;;;17.97;6.90;;;;;8.00;97032.00;;;;8348299;28;20198;-64
2023/10/07 01:12:56;;;;;;;20.17;7.73;;;;;8.00;97035.00;;;;8345878;28;20228;-63
2023/10/07 01:17:00;;;;;;;20.40;7.87;;;;;7.90;97031.00;;;;8344553;28;20205;-63
2023/10/07 01:21:08;;;;;;;19.37;8.13;;;;;7.90;97030.00;;;;8348784;28;20204;-63
2023/10/07 01:25:18;;;;;;;21.00;8.13;;;;;7.80;97025.00;;;;8347254;28;20288;-63
2023/10/07 01:29:21;;;;;;;23.13;8.23;;;;;7.70;97031.00;;;;8345456;28;20279;-63
2023/10/07 01:33:25;;;;;;;21.30;8.00;;;;;7.70;97021.00;;;;8346318;28;20581;-63
2023/10/07 01:37:41;;;;;;;20.93;8.33;;;;;7.60;97016.00;;;;8345329;28;20283;-64
2023/10/07 01:41:46;;;;;;;21.43;7.87;;;;;7.60;97026.00;;;;8353043;28;20687;-63
2023/10/07 01:45:49;;;;;;;27.03;8.70;;;;;7.60;97026.00;;;;8343838;28;20665;-64
2023/10/07 01:49:54;;;;;;;21.80;8.03;;;;;7.60;97035.00;;;;8353759;28;20655;-64
2023/10/07 01:54:02;;;;;;;25.50;9.00;;;;;7.60;97036.00;;;;8352780;28;20228;-64
2023/10/07 01:58:08;;;;;;;26.27;10.40;;;;;7.50;97029.00;;;;8365380;28;20679;-64
2023/10/07 02:02:14;;;;;;;42.37;13.67;;;;;7.50;97020.00;;;;8347223;28;20223;-64
2023/10/07 02:06:19;;;;;;;52.73;16.33;;;;;7.60;97019.00;;;;8362932;28;20690;-64
2023/10/07 02:10:26;;;;;;;32.97;11.50;;;;;7.50;97018.00;;;;8357497;28;20283;-63
2023/10/07 02:14:33;;;;;;;44.80;14.80;;;;;7.40;97020.00;;;;8350926;28;20697;-63
2023/10/07 02:18:37;;;;;;;64.80;18.83;;;;;7.30;97021.00;;;;8353463;28;21787;-63
2023/10/07 02:22:44;;;;;;;27.63;10.30;;;;;7.30;97016.00;;;;8362433;28;20224;-63
2023/10/07 02:26:53;;;;;;;20.03;8.10;;;;;7.30;97015.00;;;;8348861;28;20215;-63
2023/10/07 02:31:01;;;;;;;26.50;10.17;;;;;7.20;97016.00;;;;8348318;28;20614;-63
2023/10/07 02:35:09;;;;;;;28.17;10.57;;;;;7.20;97007.00;;;;8356847;28;20232;-63
2023/10/07 02:39:23;;;;;;;28.90;10.77;;;;;7.20;97005.00;;;;8354274;28;20557;-63
2023/10/07 02:43:28;;;;;;;22.17;8.53;;;;;7.20;97020.00;;;;8357969;28;20200;-63
2023/10/07 02:47:32;;;;;;;26.17;9.23;;;;;7.20;97013.00;;;;8346458;28;20286;-63
2023/10/07 02:51:39;;;;;;;35.43;13.20;;;;;7.10;97014.00;;;;8358749;28;20700;-63
2023/10/07 02:55:48;;;;;;;24.00;8.60;;;;;7.10;97007.00;;;;8349362;28;20224;-63
2023/10/07 02:59:51;;;;;;;18.73;8.53;;;;;7.00;97008.00;;;;8359311;28;20254;-63
2023/10/07 03:04:34;;;;;;;24.77;9.37;;;;;7.00;97012.00;;;;8440620;22;20232;-96
2023/10/07 03:13:45;;;;;;;20.87;8.60;;;;;7.00;97025.00;;;;8289421;28;20336;-63
2023/10/07 03:17:49;;;;;;;19.50;8.30;;;;;7.10;97034.00;;;;8281740;28;20226;-63
2023/10/07 03:22:06;;;;;;;19.33;8.50;;;;;7.10;97024.00;;;;8296045;28;20701;-63
2023/10/07 03:26:09;;;;;;;22.30;7.60;;;;;7.00;97034.00;;;;8306555;28;20261;-63
2023/10/07 03:30:15;;;;;;;20.93;7.87;;;;;6.90;97020.00;;;;8286681;28;20198;-63
2023/10/07 03:34:18;;;;;;;18.10;8.07;;;;;6.80;97019.00;;;;8290266;28;20842;-63
2023/10/07 03:38:25;;;;;;;16.03;7.13;;;;;6.70;97028.00;;;;8297462;28;20548;-63
2023/10/07 03:42:30;;;;;;;20.33;8.00;;;;;6.50;97015.00;;;;8302874;28;20705;-63
2023/10/07 03:46:36;;;;;;;22.97;7.90;;;;;6.50;96999.00;;;;8288270;28;20259;-63
2023/10/07 03:50:39;;;;;;;23.43;8.30;;;;;6.40;97010.00;;;;8290376;28;20322;-63
2023/10/07 03:54:42;;;;;;;23.97;9.07;;;;;6.40;97006.00;;;;8281706;28;20251;-63
2023/10/07 03:58:45;;;;;;;24.67;9.03;;;;;6.40;97006.00;;;;8288056;28;20236;-63
2023/10/07 04:02:50;;;;;;;25.23;8.53;;;;;6.50;97002.00;;;;8277664;28;20315;-63
2023/10/07 04:06:53;;;;;;;23.23;9.03;;;;;6.60;96999.00;;;;8296383;28;20225;-63
2023/10/07 04:10:56;;;;;;;19.90;8.80;;;;;6.50;97005.00;;;;8295360;28;20209;-63
2023/10/07 04:15:02;;;;;;;20.60;8.60;;;;;6.60;97006.00;;;;8314142;28;20225;-63
2023/10/07 04:19:30;;;;;;;20.83;8.97;;;;;6.60;96998.00;;;;8315836;28;20654;-63
2023/10/07 04:23:33;;;;;;;19.17;8.17;;;;;6.60;97004.00;;;;8322201;28;20208;-63
2023/10/07 04:27:42;;;;;;;27.03;8.73;;;;;6.60;97013.00;;;;8327905;28;20304;-63
2023/10/07 04:31:47;;;;;;;22.67;9.17;;;;;6.70;97007.00;;;;8323464;28;20284;-63
2023/10/07 04:35:52;;;;;;;23.83;8.57;;;;;6.80;97005.00;;;;8318043;28;20229;-63
2023/10/07 04:44:27;;;;;;;26.77;8.83;;;;;6.80;97009.00;;;;8320167;28;20597;-63
2023/10/07 04:48:41;;;;;;;19.63;8.60;;;;;6.80;97006.00;;;;8322854;28;20310;-63
2023/10/07 04:52:51;;;;;;;20.50;8.03;;;;;6.70;97014.00;;;;8315364;28;20872;-63
2023/10/07 04:57:00;;;;;;;26.33;9.50;;;;;6.70;97015.00;;;;8314805;28;20306;-63
2023/10/07 05:01:22;;;;;;;23.30;9.17;;;;;6.80;97014.00;;;;8327957;28;20229;-63
2023/10/07 05:05:29;;;;;;;22.93;9.10;;;;;6.90;97014.00;;;;8322137;28;20224;-63
2023/10/07 05:09:33;;;;;;;22.97;8.37;;;;;6.80;97012.00;;;;8313363;28;20554;-63
2023/10/07 05:13:42;;;;;;;21.17;7.83;;;;;6.80;97028.00;;;;8316689;28;20231;-65
2023/10/07 05:17:45;;;;;;;23.87;9.70;;;;;6.80;97023.00;;;;8314262;28;21013;-63
2023/10/07 05:21:59;;;;;;;21.73;9.10;;;;;6.80;97014.00;;;;8311397;28;20255;-62
2023/10/07 05:26:08;;;;;;;21.80;8.23;;;;;6.80;97021.00;;;;8308100;28;20194;-63
2023/10/07 05:30:15;;;;;;;25.40;9.07;;;;;6.70;97027.00;;;;8312631;28;20210;-63
2023/10/07 05:34:19;;;;;;;21.80;8.53;;;;;6.70;97028.00;;;;8323013;28;20224;-63
2023/10/07 05:38:22;;;;;;;33.60;9.33;;;;;6.70;97024.00;;;;8320029;28;20280;-63
2023/10/07 05:42:26;;;;;;;24.83;8.93;;;;;6.80;97020.00;;;;8313851;28;20303;-64
2023/10/07 05:46:29;;;;;;;27.70;9.70;;;;;6.90;97021.00;;;;8318954;28;20697;-63
2023/10/07 05:50:32;;;;;;;22.10;8.77;;;;;6.90;97012.00;;;;8312403;28;20201;-63
2023/10/07 05:54:36;;;;;;;29.30;9.70;;;;;7.00;97010.00;;;;8317192;28;20325;-63
2023/10/07 05:58:43;;;;;;;22.70;8.77;;;;;7.10;97006.00;;;;8314280;28;20304;-63
2023/10/07 06:02:46;;;;;;;22.27;9.40;;;;;7.10;97009.00;;;;8319316;28;20226;-62
2023/10/07 06:06:50;;;;;;;27.57;9.83;;;;;7.10;97002.00;;;;8311309;28;20209;-62
2023/10/07 06:10:55;;;;;;;28.73;9.70;;;;;7.20;97016.00;;;;8318945;28;20299;-62
2023/10/07 06:15:00;;;;;;;27.10;10.23;;;;;7.20;97018.00;;;;8318188;28;20233;-62
2023/10/07 06:19:04;;;;;;;28.60;9.93;;;;;7.30;97032.00;;;;8319290;28;20205;-62
2023/10/07 06:23:14;;;;;;;29.17;10.60;;;;;7.40;97038.00;;;;8317203;28;20190;-62
2023/10/07 06:27:21;;;;;;;18.53;8.80;;;;;7.40;97034.00;;;;8321235;28;20244;-60
2023/10/07 06:31:31;;;;;;;29.27;10.87;;;;;7.40;97047.00;;;;8318712;28;20692;-62
2023/10/07 06:35:37;;;;;;;23.27;9.70;;;;;7.60;97042.00;;;;8314844;28;20222;-60
2023/10/07 06:39:40;;;;;;;25.10;10.77;;;;;7.90;97042.00;;;;8317480;28;20252;-62
2023/10/07 06:43:49;;;;;;;33.80;11.10;;;;;8.20;97054.00;;;;8318488;28;20678;-62
2023/10/07 06:47:54;;;;;;;28.43;10.17;;;;;8.50;97045.00;;;;8319819;28;20300;-60
2023/10/07 06:51:58;;;;;;;30.77;11.07;;;;;8.70;97052.00;;;;8320344;28;20289;-60
2023/10/07 06:56:02;;;;;;;25.63;10.80;;;;;9.00;97053.00;;;;8312905;28;20308;-60
2023/10/07 07:00:11;;;;;;;29.03;11.27;;;;;9.20;97059.00;;;;8315714;28;20205;-63
2023/10/07 07:04:18;;;;;;;26.33;10.77;;;;;9.50;97066.00;;;;8308090;28;20336;-62
2023/10/07 07:08:24;;;;;;;31.90;10.33;;;;;9.80;97074.00;;;;8310588;28;20677;-63
2023/10/07 07:12:27;;;;;;;25.93;9.97;;;;;10.10;97074.00;;;;8315541;28;20213;-62
2023/10/07 07:16:41;;;;;;;24.07;9.43;;;;;10.40;97075.00;;;;8314545;28;20230;-63
2023/10/07 07:25:22;;;;;;;24.77;9.15;;;;;10.90;97086.00;;;;8311301;28;20211;-62
2023/10/07 07:29:25;;;;;;;21.45;8.30;;;;;11.20;97066.00;;;;8312125;28;20288;-63
2023/10/07 07:33:34;;;;;;;18.17;7.95;;;;;11.30;97085.00;;;;8312637;28;20685;-60
2023/10/07 07:37:40;;;;;;;23.35;8.70;;;;;11.60;97092.00;;;;8315794;28;20256;-63
2023/10/07 07:41:55;;;;;;;20.17;8.60;;;;;11.90;97108.00;;;;8315878;28;20268;-61
2023/10/07 07:46:18;;;;;;;16.50;8.43;;;;;12.50;97084.00;;;;8314201;28;20203;-61
2023/10/07 07:50:22;;;;;;;15.52;8.10;;;;;13.20;97084.00;;;;8311674;28;20206;-61
2023/10/07 07:54:29;;;;;;;19.45;7.30;;;;;13.80;97086.00;;;;8313958;28;20192;-61
2023/10/07 07:58:32;;;;;;;15.88;7.25;;;;;14.20;97084.00;;;;8314002;28;20633;-62
2023/10/07 08:02:36;;;;;;;17.40;7.47;;;;;14.50;97093.00;;;;8314802;28;20220;-62
2023/10/07 08:06:39;;;;;;;18.48;7.65;;;;;14.80;97101.00;;;;8314777;28;20609;-62
2023/10/07 08:10:44;;;;;;;15.02;7.00;;;;;15.00;97109.00;;;;8314141;28;20215;-62
2023/10/07 08:14:50;;;;;;;14.23;6.28;;;;;15.20;97117.00;;;;8309254;28;20237;-62
2023/10/07 08:18:54;;;;;;;15.18;6.20;;;;;15.40;97115.00;;;;8314096;28;20201;-62
2023/10/07 08:23:06;;;;;;;13.82;5.63;;;;;15.70;97118.00;;;;8321286;28;20209;-62
2023/10/07 08:27:43;;;;;;;12.32;5.72;;;;;15.90;97105.00;;;;8314423;28;20586;-62
2023/10/07 08:31:39;;;;;;;17.13;6.20;;;;;16.10;97103.00;;;;8310379;28;20206;-63
2023/10/07 08:35:44;;;;;;;14.68;6.00;;;;;16.40;97103.00;;;;8316014;28;20252;-64
2023/10/07 08:39:47;;;;;;;16.45;5.45;;;;;16.60;97103.00;;;;8311273;28;20280;-63
2023/10/07 08:44:03;;;;;;;14.80;5.28;;;;;16.90;97105.00;;;;8314454;28;20996;-64
2023/10/07 08:48:15;;;;;;;16.88;6.15;;;;;17.10;97094.00;;;;8318327;28;20205;-64
2023/10/07 08:52:19;;;;;;;12.32;5.07;;;;;17.30;97089.00;;;;8306678;28;20292;-63
2023/10/07 08:56:25;;;;;;;13.32;5.30;;;;;17.50;97084.00;;;;8307751;28;20228;-64
2023/10/07 09:00:32;;;;;;;9.98;4.93;;;;;17.80;97088.00;;;;8310170;28;20719;-64
2023/10/07 09:04:36;;;;;;;12.13;4.97;;;;;18.00;97099.00;;;;8311735;28;20279;-65
2023/10/07 09:08:39;;;;;;;12.77;5.18;;;;;18.20;97095.00;;;;8308542;28;20312;-66
2023/10/07 09:12:46;;;;;;;12.30;5.22;;;;;18.30;97095.00;;;;8316599;28;20201;-66
2023/10/07 09:16:50;;;;;;;9.88;4.60;;;;;18.40;97103.00;;;;8306503;28;20279;-65
2023/10/07 09:20:56;;;;;;;12.57;5.20;;;;;18.50;97110.00;;;;8313818;28;20297;-65
2023/10/07 09:25:09;;;;;;;15.27;5.18;;;;;18.60;97119.00;;;;8314128;28;20243;-64
2023/10/07 09:29:15;;;;;;;13.85;5.10;;;;;18.70;97112.00;;;;8319002;28;20205;-64
2023/10/07 09:33:21;;;;;;;13.40;4.88;;;;;18.70;97111.00;;;;8305912;28;20205;-65
2023/10/07 09:37:32;;;;;;;11.02;4.65;;;;;19.00;97123.00;;;;8314597;28;20264;-65
2023/10/07 09:41:37;;;;;;;13.02;4.55;;;;;19.10;97123.00;;;;8312838;28;20233;-66
2023/10/07 09:45:40;;;;;;;11.00;5.22;;;;;19.20;97116.00;;;;8314173;28;21181;-66
2023/10/07 09:49:45;;;;;;;12.73;5.90;;;;;19.30;97118.00;;;;8309147;28;20284;-66
2023/10/07 09:54:07;;;;;;;12.30;4.97;;;;;19.30;97117.00;;;;8311347;28;20223;-66
2023/10/07 09:58:36;;;;;;;10.88;5.28;;;;;19.20;97110.00;;;;8313405;28;20233;-65
2023/10/07 10:03:03;;;;;;;12.18;4.78;;;;;19.30;97118.00;;;;8312492;28;20217;-65
2023/10/07 10:07:32;;;;;;;10.02;5.30;;;;;19.30;97108.00;;;;8309290;28;20691;-66
2023/10/07 10:11:46;;;;;;;9.63;5.00;;;;;19.30;97116.00;;;;8317366;28;20205;-66
2023/10/07 10:15:55;;;;;;;11.88;4.60;;;;;19.30;97106.00;;;;8323756;28;20320;-66
2023/10/07 10:20:09;;;;;;;9.55;4.38;;;;;19.30;97093.00;;;;8322527;28;20198;-65
2023/10/07 10:24:18;;;;;;;10.05;4.63;;;;;19.30;97105.00;;;;8326243;28;20681;-65
2023/10/07 10:28:27;;;;;;;12.73;5.03;;;;;19.40;97098.00;;;;8331513;28;20204;-66
2023/10/07 10:32:36;;;;;;;9.85;4.72;;;;;19.50;97099.00;;;;8312416;28;20198;-65
2023/10/07 10:36:43;;;;;;;16.27;5.47;;;;;19.70;97096.00;;;;8321931;28;20228;-65
2023/10/07 10:40:47;;;;;;;8.25;4.35;;;;;19.80;97093.00;;;;8322692;28;20208;-65
2023/10/07 10:44:53;;;;;;;14.43;4.97;;;;;20.00;97091.00;;;;8324205;28;20210;-65
2023/10/07 10:48:56;;;;;;;10.43;4.07;;;;;20.10;97087.00;;;;8321306;28;20200;-66
2023/10/07 10:53:00;;;;;;;8.63;4.45;;;;;20.10;97090.00;;;;8326998;28;20201;-65
2023/10/07 10:57:07;;;;;;;8.30;4.00;;;;;20.20;97086.00;;;;8326315;28;20901;-65
2023/10/07 11:01:11;;;;;;;10.57;4.25;;;;;20.20;97077.00;;;;8316984;28;20260;-65
2023/10/07 11:05:14;;;;;;;7.65;3.83;;;;;20.10;97090.00;;;;8320652;28;20194;-66
2023/10/07 11:09:25;;;;;;;12.57;3.83;;;;;20.10;97089.00;;;;8317133;28;20535;-66
2023/10/07 11:13:30;;;;;;;8.32;4.05;;;;;20.00;97087.00;;;;8314815;28;20220;-65
2023/10/07 11:17:33;;;;;;;9.05;3.95;;;;;20.10;97081.00;;;;8307409;28;20232;-65
2023/10/07 11:21:41;;;;;;;7.53;3.33;;;;;20.00;97064.00;;;;8315228;28;20198;-65
2023/10/07 11:25:44;;;;;;;6.43;3.20;;;;;20.10;97081.00;;;;8312941;28;20236;-66
2023/10/07 11:29:58;;;;;;;7.22;3.20;;;;;20.30;97066.00;;;;8319800;28;20576;-65
2023/10/07 11:34:02;;;;;;;9.93;3.50;;;;;20.40;97058.00;;;;8312051;28;20247;-65
2023/10/07 11:38:06;;;;;;;5.97;3.20;;;;;20.30;97067.00;;;;8314872;28;20296;-64
2023/10/07 11:42:12;;;;;;;5.97;2.75;;;;;20.40;97073.00;;;;8317192;28;20288;-64
2023/10/07 11:46:20;;;;;;;6.45;3.10;;;;;20.50;97085.00;;;;8314416;28;20240;-64
2023/10/07 11:50:27;;;;;;;4.63;3.22;;;;;20.60;97082.00;;;;8325642;28;20197;-65
2023/10/07 11:54:31;;;;;;;7.10;3.38;;;;;20.90;97077.00;;;;8324444;28;20402;-64
2023/10/07 11:58:34;;;;;;;8.45;3.58;;;;;21.10;97074.00;;;;8311612;28;20956;-65
2023/10/07 12:02:39;;;;;;;11.25;3.60;;;;;21.10;97077.00;;;;8308523;28;20217;-64
2023/10/07 12:06:45;;;;;;;6.68;3.97;;;;;21.20;97073.00;;;;8321429;28;20578;-64
2023/10/07 12:10:56;;;;;;;10.23;3.78;;;;;20.90;97080.00;;;;8330531;28;20296;-64
2023/10/07 12:15:00;;;;;;;8.60;3.65;;;;;20.90;97075.00;;;;8317533;28;20205;-63
2023/10/07 12:19:06;;;;;;;9.68;3.90;;;;;21.00;97064.00;;;;8329055;28;20302;-63
2023/10/07 12:23:09;;;;;;;10.82;4.10;;;;;21.10;97071.00;;;;8318278;28;20201;-63
2023/10/07 12:27:12;;;;;;;7.07;3.22;;;;;21.00;97072.00;;;;8332237;28;20248;-63
2023/10/07 12:31:15;;;;;;;10.80;4.00;;;;;21.00;97063.00;;;;8316230;28;20205;-64
2023/10/07 12:35:21;;;;;;;8.98;3.70;;;;;21.20;97046.00;;;;8314346;28;20198;-66
2023/10/07 12:39:26;;;;;;;11.15;4.05;;;;;21.40;97065.00;;;;8311137;28;20233;-65
2023/10/07 12:43:29;;;;;;;7.75;3.97;;;;;21.60;97049.00;;;;8324844;28;20201;-65
2023/10/07 12:47:32;;;;;;;11.23;4.22;;;;;21.50;97045.00;;;;8314061;28;20289;-65
2023/10/07 12:51:38;;;;;;;9.90;3.75;;;;;21.50;97047.00;;;;8314783;28;20193;-63
2023/10/07 12:55:42;;;;;;;9.90;3.55;;;;;21.50;97045.00;;;;8313835;28;20208;-64
2023/10/07 12:59:52;;;;;;;12.73;4.47;;;;;21.30;97071.00;;;;8333806;28;20786;-64
2023/10/07 13:03:55;;;;;;;7.28;3.25;;;;;21.20;97061.00;;;;8310072;28;20256;-63
2023/10/07 13:08:00;;;;;;;8.57;3.83;;;;;21.10;97074.00;;;;8313843;28;20591;-64
2023/10/07 13:12:11;;;;;;;5.25;3.03;;;;;21.00;97072.00;;;;8323361;28;20647;-64
2023/10/07 13:16:17;;;;;;;8.73;3.85;;;;;20.90;97072.00;;;;8322630;28;20197;-64
2023/10/07 13:20:21;;;;;;;10.55;4.50;;;;;20.90;97066.00;;;;8317958;28;20299;-64
2023/10/07 13:24:25;;;;;;;8.38;3.90;;;;;21.00;97072.00;;;;8317154;28;20275;-64
2023/10/07 13:28:28;;;;;;;13.10;4.18;;;;;21.30;97068.00;;;;8329761;28;20201;-64
2023/10/07 13:32:31;;;;;;;7.13;4.07;;;;;21.50;97067.00;;;;8320537;28;20646;-64
2023/10/07 13:36:38;;;;;;;7.65;3.72;;;;;21.70;97063.00;;;;8321420;28;20263;-64
2023/10/07 13:40:43;;;;;;;8.63;3.75;;;;;21.80;97074.00;;;;8321559;28;20352;-64
2023/10/07 13:44:46;;;;;;;4.97;3.10;;;;;21.90;97070.00;;;;8316643;28;20205;-64
2023/10/07 13:48:49;;;;;;;7.65;3.80;;;;;22.00;97069.00;;;;8316784;28;20288;-64
2023/10/07 13:52:59;;;;;;;10.27;4.30;;;;;22.00;97083.00;;;;8337630;28;20283;-64
2023/10/07 13:57:03;;;;;;;9.02;3.45;;;;;22.10;97080.00;;;;8337804;28;20701;-64
2023/10/07 14:01:08;;;;;;;9.73;4.57;;;;;22.00;97084.00;;;;8319349;28;20225;-64
2023/10/07 14:05:11;;;;;;;9.93;4.32;;;;;21.90;97083.00;;;;8336660;28;20546;-65
2023/10/07 14:09:24;;;;;;;7.05;3.90;;;;;21.80;97073.00;;;;8324230;28;20829;-64
2023/10/07 14:13:32;;;;;;;8.95;3.60;;;;;21.70;97059.00;;;;8334019;28;20217;-64
2023/10/07 14:17:35;;;;;;;10.20;3.92;;;;;21.50;97067.00;;;;8324047;28;20283;-64
2023/10/07 14:21:39;;;;;;;7.45;3.30;;;;;21.40;97075.00;;;;8327597;28;20205;-64
2023/10/07 14:25:43;;;;;;;8.80;3.70;;;;;21.30;97056.00;;;;8317798;28;20686;-64
2023/10/07 14:29:47;;;;;;;5.72;3.80;;;;;21.10;97059.00;;;;8322133;28;20200;-64
2023/10/07 14:33:51;;;;;;;6.78;3.67;;;;;20.80;97043.00;;;;8325448;28;20263;-64
2023/10/07 14:37:56;;;;;;;7.60;4.15;;;;;20.60;97046.00;;;;8332662;28;20643;-64
2023/10/07 14:42:01;;;;;;;7.13;4.15;;;;;20.40;97051.00;;;;8335497;28;20201;-65
2023/10/07 14:46:11;;;;;;;6.68;3.92;;;;;20.30;97033.00;;;;8324581;28;20193;-64
2023/10/07 14:50:14;;;;;;;8.90;4.22;;;;;20.20;97053.00;;;;8317361;28;20593;-64
2023/10/07 14:54:18;;;;;;;8.52;3.60;;;;;20.20;97071.00;;;;8328689;28;20206;-63
2023/10/07 14:58:21;;;;;;;8.48;3.85;;;;;20.10;97065.00;;;;8330652;28;20276;-64
2023/10/07 15:02:26;;;;;;;15.35;4.93;;;;;20.10;97072.00;;;;8323111;28;20218;-64
2023/10/07 15:06:32;;;;;;;8.90;4.03;;;;;20.00;97052.00;;;;8315369;28;20304;-64
2023/10/07 15:10:42;;;;;;;6.57;3.72;;;;;20.00;97054.00;;;;8325507;28;20236;-64
2023/10/07 15:14:45;;;;;;;10.10;4.55;;;;;20.00;97060.00;;;;8329367;28;20241;-64
2023/10/07 15:18:51;;;;;;;11.70;4.13;;;;;20.00;97065.00;;;;8321966;28;20904;-65
2023/10/07 15:22:54;;;;;;;11.40;4.43;;;;;20.00;97069.00;;;;8318627;28;20312;-64
2023/10/07 15:26:58;;;;;;;7.28;3.70;;;;;20.10;97051.00;;;;8319126;28;20582;-65
2023/10/07 15:31:01;;;;;;;7.25;4.22;;;;;20.00;97057.00;;;;8324961;28;20748;-65
2023/10/07 15:35:08;;;;;;;9.95;4.43;;;;;20.00;97055.00;;;;8324445;28;20759;-64
2023/10/07 15:39:15;;;;;;;11.27;4.35;;;;;19.80;97058.00;;;;8326137;28;20228;-64
2023/10/07 15:43:18;;;;;;;7.53;4.47;;;;;19.70;97071.00;;;;8325341;28;20232;-64
2023/10/07 15:47:21;;;;;;;9.48;3.97;;;;;19.50;97064.00;;;;8325580;28;20784;-64
2023/10/07 15:51:26;;;;;;;9.18;4.68;;;;;19.50;97071.00;;;;8330229;28;20201;-63
2023/10/07 15:55:31;;;;;;;10.43;4.07;;;;;19.40;97062.00;;;;8315478;28;20665;-64
2023/10/07 15:59:34;;;;;;;13.18;6.78;;;;;19.20;97054.00;;;;8318408;28;20229;-64
2023/10/07 16:03:38;;;;;;;6.03;3.97;;;;;19.20;97056.00;;;;8322786;28;20309;-65
2023/10/07 16:07:42;;;;;;;10.05;4.00;;;;;19.10;97050.00;;;;8321663;28;20216;-65
2023/10/07 16:11:47;;;;;;;13.13;4.85;;;;;19.00;97058.00;;;;8325767;28;20215;-64
2023/10/07 16:15:52;;;;;;;11.70;4.82;;;;;18.90;97067.00;;;;8316672;28;20754;-65
2023/10/07 16:20:00;;;;;;;7.97;4.68;;;;;18.90;97052.00;;;;8319011;28;20225;-64
2023/10/07 16:24:10;;;;;;;12.95;4.85;;;;;18.80;97048.00;;;;8324824;28;20309;-65
2023/10/07 16:28:14;;;;;;;10.55;4.03;;;;;18.70;97048.00;;;;8338503;28;20211;-65
2023/10/07 16:32:18;;;;;;;6.60;4.15;;;;;18.60;97059.00;;;;8339823;28;20200;-64
2023/10/07 16:36:21;;;;;;;47.10;24.60;;;;;18.50;97059.00;;;;8328558;28;20204;-65
2023/10/07 16:40:25;;;;;;;69.85;63.28;;;;;18.40;97052.00;;;;8313602;28;20229;-65
2023/10/07 16:44:29;;;;;;;15.90;11.45;;;;;18.30;97063.00;;;;8316432;28;20236;-65
2023/10/07 16:48:34;;;;;;;51.35;46.13;;;;;18.30;97066.00;;;;8312885;28;20833;-65
2023/10/07 16:52:38;;;;;;;12.27;5.50;;;;;18.20;97077.00;;;;8315771;28;20205;-64
2023/10/07 16:56:42;;;;;;;15.07;6.40;;;;;18.20;97064.00;;;;8327215;28;20761;-64
2023/10/07 17:00:45;;;;;;;11.48;5.10;;;;;18.10;97065.00;;;;8313250;28;20267;-64
2023/10/07 17:04:48;;;;;;;8.80;5.20;;;;;18.00;97055.00;;;;8316082;28;20221;-64
2023/10/07 17:08:52;;;;;;;8.90;3.85;;;;;18.00;97048.00;;;;8323580;28;20216;-64
2023/10/07 17:12:57;;;;;;;10.07;4.53;;;;;17.90;97065.00;;;;8317843;28;20323;-64
2023/10/07 17:17:00;;;;;;;9.27;4.10;;;;;17.80;97052.00;;;;8311523;28;20613;-65
2023/10/07 17:21:09;;;;;;;7.75;3.60;;;;;17.70;97059.00;;;;8316594;28;20614;-64
2023/10/07 17:25:12;;;;;;;9.73;4.03;;;;;17.70;97069.00;;;;8321632;28;20202;-65
2023/10/07 17:29:16;;;;;;;10.43;4.25;;;;;17.70;97067.00;;;;8312760;28;20929;-67
2023/10/07 17:33:20;;;;;;;8.43;4.35;;;;;17.60;97071.00;;;;8314539;28;20201;-64
2023/10/07 17:37:24;;;;;;;9.55;4.35;;;;;17.60;97065.00;;;;8322526;28;20208;-66
2023/10/07 17:41:27;;;;;;;6.25;4.00;;;;;17.60;97062.00;;;;8317917;28;20221;-64
2023/10/07 17:45:32;;;;;;;10.60;5.22;;;;;17.60;97060.00;;;;8313911;28;20730;-65
2023/10/07 17:49:35;;;;;;;9.60;4.03;;;;;17.60;97058.00;;;;8316236;28;20204;-65
2023/10/07 17:53:38;;;;;;;7.07;4.10;;;;;17.60;97046.00;;;;8312657;28;20698;-65
2023/10/07 17:57:43;;;;;;;9.57;4.20;;;;;17.50;97056.00;;;;8327760;28;20196;-65
2023/10/07 18:01:47;;;;;;;9.40;4.00;;;;;17.50;97042.00;;;;8312436;28;20241;-66
2023/10/07 18:05:51;;;;;;;8.82;4.07;;;;;17.40;97044.00;;;;8313079;28;20286;-64
2023/10/07 18:09:54;;;;;;;8.85;4.20;;;;;17.40;97042.00;;;;8329583;28;20237;-65
2023/10/07 18:13:57;;;;;;;9.73;4.20;;;;;17.40;97038.00;;;;8314670;28;20202;-66
2023/10/07 18:18:02;;;;;;;7.30;4.68;;;;;17.40;97040.00;;;;8312671;28;20726;-65
2023/10/07 18:22:06;;;;;;;8.00;4.30;;;;;17.40;97022.00;;;;8315560;28;20332;-65
2023/10/07 18:26:10;;;;;;;7.90;4.20;;;;;17.40;97023.00;;;;8313705;28;20194;-65
2023/10/07 18:30:14;;;;;;;9.20;7.15;;;;;17.40;97016.00;;;;8314628;28;20205;-65
2023/10/07 18:34:19;;;;;;;9.45;6.43;;;;;17.40;97013.00;;;;8314018;28;20198;-65
2023/10/07 18:38:22;;;;;;;12.82;5.10;;;;;17.50;97006.00;;;;8318808;28;20654;-64
2023/10/07 18:42:25;;;;;;;10.90;4.30;;;;;17.50;97014.00;;;;8318432;28;20296;-64
2023/10/07 18:46:29;;;;;;;11.25;4.18;;;;;17.50;97012.00;;;;8319424;28;20204;-63
2023/10/07 18:50:33;;;;;;;7.78;4.00;;;;;17.50;97002.00;;;;8329993;28;20642;-64
2023/10/07 18:54:40;;;;;;;10.32;5.78;;;;;17.50;97001.00;;;;8314927;28;20201;-64
2023/10/07 18:58:43;;;;;;;8.73;4.32;;;;;17.50;96993.00;;;;8318294;28;20312;-63
2023/10/07 19:02:46;;;;;;;415.75;232.90;;;;;17.50;96988.00;;;;8320492;28;20806;-65
2023/10/07 19:06:51;;;;;;;208.90;101.05;;;;;17.50;96987.00;;;;8321453;28;20198;-65
2023/10/07 19:10:54;;;;;;;47.70;37.85;;;;;17.60;96983.00;;;;8318790;28;20263;-65
2023/10/07 19:14:58;;;;;;;74.90;55.95;;;;;17.60;96993.00;;;;8325764;28;20288;-65
2023/10/07 19:19:04;;;;;;;9.55;5.03;;;;;17.60;96989.00;;;;8338714;28;20225;-64
2023/10/07 19:23:11;;;;;;;8.85;3.50;;;;;17.70;96991.00;;;;8332738;28;20711;-65
2023/10/07 19:27:15;;;;;;;13.63;5.22;;;;;17.70;96983.00;;;;8319294;28;20215;-64
2023/10/07 19:31:18;;;;;;;9.43;4.22;;;;;17.70;96999.00;;;;8328679;28;20201;-65
2023/10/07 19:35:22;;;;;;;8.73;3.90;;;;;17.70;97000.00;;;;8319489;28;20961;-66
2023/10/07 19:39:26;;;;;;;8.25;3.83;;;;;17.70;97006.00;;;;8327114;28;20231;-66
2023/10/07 19:43:46;;;;;;;7.13;3.53;;;;;17.70;97002.00;;;;8318914;28;20417;-66
2023/10/07 19:47:49;;;;;;;8.40;4.00;;;;;17.70;97015.00;;;;8316308;28;20194;-65
2023/10/07 19:51:52;;;;;;;8.68;3.53;;;;;17.70;97012.00;;;;8327590;28;20742;-66
2023/10/07 19:55:57;;;;;;;8.15;3.67;;;;;17.70;97011.00;;;;8326390;28;20205;-66
2023/10/07 20:00:03;;;;;;;6.03;3.47;;;;;17.70;97004.00;;;;8316816;28;20226;-65
2023/10/07 20:04:06;;;;;;;6.03;3.50;;;;;17.70;97002.00;;;;8311415;28;20236;-66
2023/10/07 20:08:11;;;;;;;5.93;3.60;;;;;17.70;97009.00;;;;8322258;28;20469;-65
2023/10/07 20:12:16;;;;;;;8.00;3.60;;;;;17.70;96999.00;;;;8322251;28;20852;-65
2023/10/07 20:16:20;;;;;;;8.20;3.55;;;;;17.70;96982.00;;;;8329089;28;20189;-65
2023/10/07 20:20:24;;;;;;;6.70;3.42;;;;;17.60;96983.00;;;;8312150;28;20264;-65
2023/10/07 20:24:27;;;;;;;5.60;3.40;;;;;17.60;96982.00;;;;8327446;28;20225;-66
2023/10/07 20:28:32;;;;;;;9.38;4.25;;;;;17.50;96998.00;;;;8328916;28;20647;-66
2023/10/07 20:32:36;;;;;;;8.60;3.55;;;;;17.40;97000.00;;;;8316015;28;20224;-65
2023/10/07 20:36:39;;;;;;;6.80;3.45;;;;;17.40;96999.00;;;;8320092;28;20766;-67
2023/10/07 20:40:52;;;;;;;7.70;3.63;;;;;17.40;97009.00;;;;8315005;28;20757;-65